ME06 weather

Flying Ed Airport
Charlotte, Maine, United States

Public forecast

Using degrees Fahrenheit for public forecast. Weather courtesy of forecast.io.

Closest aviation weather report (METAR) to Flying Ed Airport

Closest report is Hancock County-Bar Harbor Airport, 56.7 nm (105.0 km) SW. Retrieved 2020/08/03 20:56 UTC (13 minutes ago):

KBHB 032056Z AUTO 22007KT 10SM SCT060 28/20 A2986 RMK AO2 SLP113 T02780200 53007

Closest aviation forecast (TAF) to Flying Ed Airport

Closest forecast is Hancock County-Bar Harbor Airport, 56.7 nm (105.0 km) SW. Retrieved 2020/08/03 18:39 UTC (3 hours ago):

TAF KBHB 031737Z 0318/0418 21012KT P6SM SCT050 FM032200 24012KT P6SM SCT050 FM040000 28006KT P6SM SCT050 FM041000 VRB03KT 4SM BR SCT050 FM041200 16006KT P6SM SCT050